Time;durP1;ratioP1;P1;durP2;ratioP2;P2;SDS_P1;SDS_P2;PMS_P1;PMS_P2;Temp;Humidity;BMP_temperature;BMP_pressure;BME280_temperature;BME280_humidity;BME280_pressure;Samples;Min_cycle;Max_cycle;Signal;HPM_P1;HPM_P2
2022/09/13 00:03:14;;;;;;;0.43;0.43;;;;;;;12.85;64.02;100429.69;18430394;32;20093;-56
2022/09/13 00:13:18;;;;;;;0.47;0.47;;;;;;;12.87;63.68;100437.53;18430666;32;20430;-56
2022/09/13 00:23:21;;;;;;;0.40;0.40;;;;;;;12.71;64.23;100439.44;18432314;32;20089;-56
2022/09/13 00:33:26;;;;;;;0.60;0.60;;;;;;;12.65;64.03;100437.75;18436948;32;20169;-56
2022/09/13 00:43:42;;;;;;;0.35;0.35;;;;;;;12.38;64.76;100436.28;18436962;32;20120;-56
2022/09/13 00:53:50;;;;;;;0.37;0.37;;;;;;;12.29;64.48;100435.47;18421617;32;20154;-56
2022/09/13 01:03:53;;;;;;;0.40;0.40;;;;;;;11.96;66.59;100437.47;18437375;32;20103;-56
2022/09/13 01:13:58;;;;;;;0.50;0.50;;;;;;;12.12;64.40;100434.75;18436001;32;20147;-56
2022/09/13 01:24:59;;;;;;;0.80;0.68;;;;;;;11.94;64.90;100449.66;18436651;32;20069;-56
2022/09/13 01:35:14;;;;;;;0.40;0.40;;;;;;;11.96;64.58;100428.72;18108164;32;20744;-56
2022/09/13 01:45:24;;;;;;;0.40;0.40;;;;;;;11.91;64.90;100431.38;18108696;32;20138;-56
2022/09/13 01:55:33;;;;;;;0.30;0.30;;;;;;;11.70;65.14;100430.66;18108558;32;20127;-56
2022/09/13 02:05:39;;;;;;;0.40;0.40;;;;;;;11.72;65.13;100423.66;18281713;32;20116;-56
2022/09/13 02:15:46;;;;;;;0.90;0.90;;;;;;;11.83;63.61;100420.09;18441805;32;20085;-56
2022/09/13 02:25:51;;;;;;;2.75;0.88;;;;;;;11.41;65.80;100410.78;18446532;32;20084;-55
2022/09/13 02:35:59;;;;;;;0.40;0.40;;;;;;;11.43;65.06;100419.47;18498078;32;20368;-55
2022/09/13 02:46:14;;;;;;;1.20;0.73;;;;;;;11.38;65.45;100413.41;18432502;32;20365;-56
2022/09/13 02:56:24;;;;;;;0.40;0.40;;;;;;;11.28;66.08;100409.09;18432907;32;20093;-56
2022/09/13 03:06:29;;;;;;;0.40;0.40;;;;;;;11.19;65.88;100408.28;18432625;32;20084;-56
2022/09/13 03:16:44;;;;;;;0.82;0.82;;;;;;;11.21;65.70;100405.66;18432117;32;20109;-56
2022/09/13 03:26:57;;;;;;;0.30;0.30;;;;;;;11.21;65.27;100400.41;18432019;32;20089;-56
2022/09/13 03:37:06;;;;;;;0.40;0.40;;;;;;;11.02;65.27;100389.19;18431656;32;20081;-56
2022/09/13 03:47:09;;;;;;;0.60;0.60;;;;;;;10.95;65.88;100384.00;18430902;32;20088;-56
2022/09/13 03:57:16;;;;;;;0.50;0.50;;;;;;;10.80;66.09;100370.97;18429531;32;20089;-56
2022/09/13 04:07:21;;;;;;;0.40;0.40;;;;;;;10.93;65.62;100372.69;18430208;32;20150;-56
2022/09/13 04:17:26;;;;;;;0.60;0.60;;;;;;;10.85;65.27;100378.81;18429609;32;20093;-56
2022/09/13 04:27:29;;;;;;;0.52;0.52;;;;;;;10.80;65.36;100378.81;18429047;32;20107;-56
2022/09/13 04:37:34;;;;;;;0.50;0.50;;;;;;;10.41;67.48;100378.91;18428174;32;20112;-56
2022/09/13 04:47:37;;;;;;;2.35;2.15;;;;;;;10.79;65.97;100367.53;18427619;32;20259;-56
2022/09/13 04:57:42;;;;;;;0.40;0.40;;;;;;;10.80;65.92;100376.22;18427220;32;20093;-56
2022/09/13 05:07:45;;;;;;;0.55;0.55;;;;;;;11.06;65.77;100375.25;18427733;32;20122;-56
2022/09/13 05:17:50;;;;;;;0.47;0.47;;;;;;;11.35;66.16;100384.66;18434405;32;20184;-56
2022/09/13 05:27:53;;;;;;;0.62;0.52;;;;;;;11.64;67.04;100394.97;18435180;32;20097;-56
2022/09/13 05:37:57;;;;;;;0.30;0.30;;;;;;;12.32;67.85;100403.19;18435900;32;20097;-56
2022/09/13 05:48:00;;;;;;;1.27;1.08;;;;;;;15.14;61.14;100397.25;18434548;32;20100;-56
2022/09/13 05:58:05;;;;;;;0.20;0.20;;;;;;;17.94;57.31;100383.66;18433202;32;20101;-56
2022/09/13 06:08:08;;;;;;;0.50;0.50;;;;;;;20.10;46.36;100384.47;18434242;32;20453;-56
2022/09/13 06:18:13;;;;;;;0.15;0.15;;;;;;;20.31;45.08;100384.50;18446006;32;20080;-56
2022/09/13 06:28:16;;;;;;;0.40;0.40;;;;;;;20.85;44.88;100383.91;18498673;32;20116;-56
2022/09/13 06:38:20;;;;;;;0.20;0.20;;;;;;;20.95;44.77;100380.81;18497762;32;20461;-56
2022/09/13 06:48:23;;;;;;;4.53;1.85;;;;;;;20.50;46.06;100381.88;18482760;32;20116;-56
2022/09/13 06:58:30;;;;;;;0.28;0.25;;;;;;;21.02;42.38;100382.28;18494831;32;20101;-56
2022/09/13 07:08:34;;;;;;;0.50;0.50;;;;;;;21.68;42.86;100383.59;18487542;32;20132;-56
2022/09/13 07:18:38;;;;;;;0.10;0.10;;;;;;;22.15;42.36;100381.31;18496242;32;20097;-56
2022/09/13 07:28:44;;;;;;;0.30;0.30;;;;;;;22.53;43.16;100378.47;18491054;32;20144;-56
2022/09/13 07:38:48;;;;;;;0.73;0.57;;;;;;;22.09;40.47;100386.91;18477700;32;20110;-56
2022/09/13 07:48:53;;;;;;;3.50;0.68;;;;;;;22.31;42.55;100389.34;18494216;32;20107;-57
2022/09/13 07:58:59;;;;;;;0.25;0.25;;;;;;;22.29;40.01;100385.91;18496455;32;20482;-56
2022/09/13 08:09:03;;;;;;;0.47;0.43;;;;;;;22.34;41.67;100383.88;18492028;32;20096;-57
2022/09/13 08:19:10;;;;;;;0.55;0.55;;;;;;;22.36;41.47;100382.00;18493199;32;20097;-57
2022/09/13 08:29:14;;;;;;;0.10;0.10;;;;;;;22.37;38.08;100372.19;18492675;32;20112;-56
2022/09/13 08:39:19;;;;;;;0.10;0.10;;;;;;;22.49;37.27;100368.94;18489084;32;20114;-56
2022/09/13 08:49:25;;;;;;;0.10;0.10;;;;;;;22.61;37.77;100362.09;18500259;32;20112;-56
2022/09/13 08:59:47;;;;;;;0.20;0.20;;;;;;;22.85;37.57;100348.44;18500453;32;20085;-55
2022/09/13 09:09:53;;;;;;;0.47;0.43;;;;;;;23.52;36.17;100344.72;18491933;32;20080;-55
2022/09/13 09:20:03;;;;;;;0.20;0.20;;;;;;;23.82;34.76;100335.94;18520218;32;20097;-56
2022/09/13 09:30:12;;;;;;;0.00;0.00;;;;;;;24.00;33.51;100333.09;18484990;32;20126;-55
2022/09/13 09:40:17;;;;;;;0.17;0.17;;;;;;;24.43;32.82;100306.50;18498880;32;20533;-55
2022/09/13 09:50:23;;;;;;;0.10;0.08;;;;;;;24.21;34.41;100310.50;18498735;32;20112;-55
2022/09/13 10:00:30;;;;;;;0.10;0.10;;;;;;;23.92;34.48;100305.09;18497354;32;20377;-56
2022/09/13 10:10:37;;;;;;;0.08;0.08;;;;;;;23.40;35.07;100279.75;18487073;32;20110;-56
2022/09/13 10:20:43;;;;;;;0.00;0.00;;;;;;;23.96;36.58;100263.13;18448788;32;20456;-55
2022/09/13 10:30:48;;;;;;;0.17;0.17;;;;;;;23.87;34.04;100256.53;18496363;32;20677;-56
2022/09/13 10:40:54;;;;;;;0.10;0.10;;;;;;;24.62;33.89;100241.31;18496658;32;20421;-56
2022/09/13 10:51:02;;;;;;;0.20;0.20;;;;;;;23.90;34.83;100253.69;18497287;32;20106;-56
2022/09/13 11:01:35;;;;;;;0.43;0.30;;;;;;;24.07;35.07;100244.69;18496319;32;20105;-56
2022/09/13 11:11:48;;;;;;;1.75;0.20;;;;;;;23.77;35.15;100240.25;18439324;32;20107;-56
2022/09/13 11:22:03;;;;;;;0.45;0.13;;;;;;;24.35;34.53;100234.09;18496181;32;20088;-56
2022/09/13 11:32:14;;;;;;;0.00;0.00;;;;;;;23.84;34.86;100224.75;18438410;32;20136;-56
2022/09/13 11:42:28;;;;;;;2.40;0.35;;;;;;;25.35;33.65;100204.56;18475747;32;20097;-56
2022/09/13 11:52:41;;;;;;;0.10;0.10;;;;;;;25.77;31.64;100183.91;18494767;32;20104;-56
2022/09/13 12:02:51;;;;;;;0.43;0.10;;;;;;;25.44;33.00;100171.88;18454329;32;20097;-56
2022/09/13 12:12:55;;;;;;;0.00;0.00;;;;;;;25.69;32.68;100180.03;18502040;32;20182;-56
2022/09/13 12:23:02;;;;;;;0.10;0.10;;;;;;;25.16;33.90;100173.75;18496151;32;20136;-56
2022/09/13 12:33:06;;;;;;;0.20;0.20;;;;;;;25.29;34.26;100160.41;18483223;32;20462;-56
2022/09/13 12:43:38;;;;;;;0.10;0.10;;;;;;;25.11;32.91;100142.97;18516949;32;20104;-55
2022/09/13 12:53:58;;;;;;;0.30;0.30;;;;;;;25.56;32.36;100143.47;18564470;32;20157;-56
2022/09/13 13:04:05;;;;;;;0.20;0.20;;;;;;;25.90;33.82;100142.91;18497501;32;20114;-56
2022/09/13 13:14:27;;;;;;;0.05;0.05;;;;;;;26.66;31.55;100131.28;18506987;32;20139;-57
2022/09/13 13:24:46;;;;;;;0.70;0.35;;;;;;;27.36;30.68;100131.41;18492809;32;20122;-58
2022/09/13 13:34:50;;;;;;;0.10;0.10;;;;;;;27.37;29.78;100125.94;18465954;32;20100;-57
2022/09/13 13:45:17;;;;;;;0.20;0.20;;;;;;;27.61;30.60;100119.66;18480366;32;20119;-58
2022/09/13 13:55:40;;;;;;;0.10;0.10;;;;;;;27.62;29.57;100116.00;18469043;32;20448;-57
2022/09/13 14:05:49;;;;;;;0.10;0.10;;;;;;;26.99;31.31;100111.84;18438830;32;20353;-57
2022/09/13 14:15:58;;;;;;;0.10;0.10;;;;;;;26.44;32.82;100112.31;18498552;32;20099;-57
2022/09/13 14:26:05;;;;;;;0.55;0.30;;;;;;;25.61;33.76;100103.06;18497912;32;20421;-57
2022/09/13 14:36:17;;;;;;;0.10;0.10;;;;;;;25.35;33.64;100095.88;18497202;32;20650;-57
2022/09/13 14:46:25;;;;;;;0.05;0.05;;;;;;;24.99;35.38;100089.44;18498088;32;20101;-57
2022/09/13 14:56:32;;;;;;;0.25;0.25;;;;;;;24.67;37.17;100073.78;18497368;32;20092;-57
2022/09/13 15:06:38;;;;;;;0.03;0.03;;;;;;;25.38;36.25;100077.94;18497248;32;20150;-57
2022/09/13 15:16:47;;;;;;;0.40;0.40;;;;;;;25.50;34.36;100063.72;18538543;32;20502;-57
2022/09/13 15:27:03;;;;;;;0.50;0.50;;;;;;;25.35;34.75;100053.16;18500642;32;20176;-57
2022/09/13 15:37:11;;;;;;;0.10;0.10;;;;;;;24.87;35.44;100048.41;18509591;32;20112;-59
2022/09/13 15:47:19;;;;;;;0.22;0.22;;;;;;;24.71;36.13;100045.03;18487340;32;20189;-57
2022/09/13 15:57:24;;;;;;;0.00;0.00;;;;;;;24.51;37.35;100044.56;18493679;32;20151;-57
2022/09/13 16:07:29;;;;;;;0.32;0.32;;;;;;;24.17;39.49;100039.63;18493097;32;20470;-57
2022/09/13 16:17:32;;;;;;;0.10;0.10;;;;;;;23.80;39.89;100024.19;18494695;32;20103;-57
2022/09/13 16:27:37;;;;;;;1.35;0.65;;;;;;;23.40;43.21;100026.72;18493259;32;20115;-57
2022/09/13 16:37:40;;;;;;;0.37;0.37;;;;;;;23.00;45.43;100016.66;18491848;32;20137;-57
2022/09/13 16:47:45;;;;;;;0.17;0.17;;;;;;;22.66;46.81;100022.22;18476132;32;20119;-57
2022/09/13 16:57:51;;;;;;;0.10;0.10;;;;;;;22.34;49.38;100030.25;18488952;32;20116;-57
2022/09/13 17:07:55;;;;;;;0.17;0.17;;;;;;;22.00;50.14;100032.97;18500436;32;20149;-57
2022/09/13 17:17:58;;;;;;;0.20;0.20;;;;;;;21.56;52.33;100036.28;18551706;32;20436;-57
2022/09/13 17:28:03;;;;;;;0.10;0.10;;;;;;;20.93;53.97;100034.19;18504936;32;20429;-57
2022/09/13 17:38:06;;;;;;;0.13;0.13;;;;;;;20.51;54.03;100038.06;18500438;32;20109;-57
2022/09/13 17:48:11;;;;;;;0.20;0.20;;;;;;;20.18;53.87;100046.72;18484801;32;20167;-57
2022/09/13 17:58:14;;;;;;;0.35;0.35;;;;;;;19.81;55.94;100038.72;18484427;32;20433;-57
2022/09/13 18:08:19;;;;;;;0.40;0.40;;;;;;;19.57;55.57;100040.72;18498794;32;20096;-57
2022/09/13 18:18:23;;;;;;;0.37;0.37;;;;;;;19.47;56.27;100042.91;18497668;32;20085;-56
2022/09/13 18:28:28;;;;;;;0.52;0.52;;;;;;;19.33;57.70;100043.50;18483778;32;20097;-57
2022/09/13 18:38:33;;;;;;;0.73;0.73;;;;;;;19.17;57.94;100065.38;18498059;32;20108;-57
2022/09/13 18:48:40;;;;;;;1.00;0.90;;;;;;;19.03;59.57;100058.03;18483479;32;20100;-57
2022/09/13 18:58:44;;;;;;;0.75;0.40;;;;;;;19.28;58.49;100062.25;18482902;32;20158;-57
2022/09/13 19:08:49;;;;;;;0.57;0.57;;;;;;;19.15;58.40;100066.38;18496443;32;20097;-57
2022/09/13 19:18:52;;;;;;;0.25;0.25;;;;;;;19.13;58.44;100069.06;18482479;32;20132;-57
2022/09/13 19:29:02;;;;;;;0.30;0.30;;;;;;;19.01;58.41;100066.97;18481907;32;20122;-57
2022/09/13 19:39:07;;;;;;;0.40;0.40;;;;;;;18.84;59.32;100065.84;18496475;32;20118;-57
2022/09/13 19:49:14;;;;;;;0.35;0.35;;;;;;;18.80;59.50;100048.41;18496288;32;20097;-56
2022/09/13 19:59:19;;;;;;;0.43;0.43;;;;;;;19.04;58.45;100048.31;18480752;32;20119;-57
2022/09/13 20:09:24;;;;;;;0.30;0.30;;;;;;;19.15;58.76;100061.91;18495931;32;20110;-57
2022/09/13 20:19:28;;;;;;;0.20;0.20;;;;;;;19.17;58.56;100060.09;18494078;32;20093;-57
2022/09/13 20:29:46;;;;;;;0.30;0.30;;;;;;;19.42;58.11;100058.97;18493488;32;20115;-57
2022/09/13 20:39:50;;;;;;;0.32;0.32;;;;;;;19.38;58.90;100045.03;18495781;32;20145;-57
2022/09/13 20:49:54;;;;;;;0.30;0.30;;;;;;;19.37;59.73;100045.97;18501715;32;20352;-57
2022/09/13 20:59:58;;;;;;;0.75;0.40;;;;;;;19.49;59.48;100041.03;18498637;32;20472;-58
2022/09/13 21:10:04;;;;;;;0.50;0.50;;;;;;;19.43;59.82;100042.16;18443013;32;20097;-57
2022/09/13 21:20:07;;;;;;;2.53;0.65;;;;;;;19.40;59.44;100031.72;18492092;32;20098;-57
2022/09/13 21:30:13;;;;;;;1.08;0.65;;;;;;;19.43;59.44;100033.41;18499852;32;20341;-57
2022/09/13 21:40:16;;;;;;;0.50;0.50;;;;;;;19.25;60.21;100034.16;18501163;32;20157;-57
2022/09/13 21:50:21;;;;;;;2.28;0.82;;;;;;;19.21;60.43;100034.34;18497444;32;20089;-57
2022/09/13 22:00:24;;;;;;;0.85;0.50;;;;;;;19.08;60.82;100028.75;18499194;32;20111;-57
2022/09/13 22:10:28;;;;;;;0.65;0.47;;;;;;;19.14;60.80;100028.44;18496360;32;20111;-57
2022/09/13 22:20:31;;;;;;;0.35;0.35;;;;;;;19.04;60.77;100032.44;18498716;32;20169;-57
2022/09/13 22:30:36;;;;;;;0.40;0.40;;;;;;;18.87;60.88;100010.19;18473860;32;20115;-56
2022/09/13 22:40:39;;;;;;;0.30;0.30;;;;;;;18.64;61.99;99995.28;18449152;32;20119;-56
2022/09/13 22:50:44;;;;;;;2.95;1.65;;;;;;;18.58;61.62;99999.94;18448375;32;20125;-56
2022/09/13 23:00:47;;;;;;;0.20;0.20;;;;;;;18.24;62.06;100000.47;18432465;32;20093;-56
2022/09/13 23:10:51;;;;;;;1.30;1.20;;;;;;;18.14;61.69;100003.50;18433696;32;20093;-56
2022/09/13 23:20:58;;;;;;;0.35;0.32;;;;;;;17.97;62.24;99997.97;18432631;32;20101;-56
2022/09/13 23:31:13;;;;;;;0.73;0.60;;;;;;;17.62;61.96;99995.78;18431996;32;20162;-56
2022/09/13 23:41:17;;;;;;;0.32;0.32;;;;;;;17.43;62.58;100003.53;18451879;32;20144;-56
2022/09/13 23:51:23;;;;;;;0.40;0.40;;;;;;;17.26;63.10;100002.41;18474022;32;162413;-56
